Time;durP1;ratioP1;P1;durP2;ratioP2;P2;SDS_P1;SDS_P2;PMS_P1;PMS_P2;Temp;Humidity;BMP_temperature;BMP_pressure;BME280_temperature;BME280_humidity;BME280_pressure;Samples;Min_cycle;Max_cycle;Signal;HPM_P1;HPM_P2
2022/04/26 03:37:19;;;;;;;;;;;;;;;14.34;68.29;99335.09;4950868;29;19953;-84
2022/04/26 03:39:44;;;;;;;;;;;;;;;14.15;70.00;99334.88;4951240;28;19926;-83
2022/04/26 03:42:10;;;;;;;;;;;;;;;14.26;69.50;99340.66;4949285;28;19925;-83
2022/04/26 03:44:35;;;;;;;;;;;;;;;14.39;68.79;99337.56;4949425;29;19918;-82
2022/04/26 03:47:01;;;;;;;;;;;;;;;14.35;68.99;99338.59;4951066;28;19965;-85
2022/04/26 03:49:27;;;;;;;;;;;;;;;14.53;67.74;99345.03;4966165;28;19961;-83
2022/04/26 03:51:52;;;;;;;;;;;;;;;14.58;67.98;99340.41;4954429;28;19919;-83
2022/04/26 03:54:21;;;;;;;;;;;;;;;14.69;67.32;99354.22;4950761;28;19914;-83
2022/04/26 03:56:47;;;;;;;;;;;;;;;14.43;68.19;99348.03;4950371;28;19961;-83
2022/04/26 03:59:12;;;;;;;;;;;;;;;14.41;68.62;99347.22;4950568;28;20372;-83
2022/04/26 04:01:39;;;;;;;;;;;;;;;14.17;69.95;99350.75;4950110;28;20301;-83
2022/04/26 04:04:04;;;;;;;;;;;;;;;13.99;70.55;99363.72;4950371;28;19981;-82
2022/04/26 04:06:30;;;;;;;;;;;;;;;14.10;70.04;99366.88;4950630;28;20554;-84
2022/04/26 04:08:55;;;;;;;;;;;;;;;14.06;70.22;99365.25;4970033;28;19968;-84
2022/04/26 04:11:20;;;;;;;;;;;;;;;13.74;71.43;99363.69;4959072;28;19969;-83
2022/04/26 04:13:46;;;;;;;;;;;;;;;14.10;70.74;99374.84;4948686;28;20286;-84
2022/04/26 04:16:11;;;;;;;;;;;;;;;14.18;70.43;99373.69;4963983;28;19986;-82
2022/04/26 04:21:20;;;;;;;;;;;;;;;14.37;70.00;99379.22;4950886;28;19933;-83
2022/04/26 04:23:46;;;;;;;;;;;;;;;14.50;70.27;99381.38;4949893;28;20357;-82
2022/04/26 04:26:11;;;;;;;;;;;;;;;14.64;69.41;99388.88;4948843;28;20380;-83
2022/04/26 04:28:37;;;;;;;;;;;;;;;14.76;69.04;99395.50;4948357;29;19919;-83
2022/04/26 04:31:02;;;;;;;;;;;;;;;14.90;68.65;99392.34;4943320;28;19922;-82
2022/04/26 04:33:28;;;;;;;;;;;;;;;15.01;68.65;99389.28;4949023;28;19986;-84
2022/04/26 04:35:53;;;;;;;;;;;;;;;15.14;68.06;99390.56;4946671;28;20680;-83
2022/04/26 04:38:18;;;;;;;;;;;;;;;15.12;68.27;99392.41;4949959;29;19914;-84
2022/04/26 04:40:43;;;;;;;;;;;;;;;15.27;67.89;99400.72;4947881;28;19950;-85
2022/04/26 04:43:12;;;;;;;;;;;;;;;15.40;67.81;99405.47;4947830;29;20297;-84
2022/04/26 04:45:38;;;;;;;;;;;;;;;15.43;67.66;99404.50;4948000;28;19946;-85
2022/04/26 04:48:05;;;;;;;;;;;;;;;15.43;67.86;99406.28;4948794;28;20361;-85
2022/04/26 04:50:32;;;;;;;;;;;;;;;15.62;66.74;99407.28;4949445;28;19922;-85
2022/04/26 04:52:57;;;;;;;;;;;;;;;15.69;67.00;99400.81;4946870;28;19918;-85
2022/04/26 04:55:22;;;;;;;;;;;;;;;15.76;67.30;99410.25;4947343;28;19926;-85
2022/04/26 04:57:48;;;;;;;;;;;;;;;15.97;66.04;99412.97;4949653;28;19973;-85
2022/04/26 05:00:13;;;;;;;;;;;;;;;15.93;66.62;99414.03;4947591;28;19973;-86
2022/04/26 05:02:39;;;;;;;;;;;;;;;16.13;66.34;99418.53;4947369;29;19981;-86
2022/04/26 05:05:05;;;;;;;;;;;;;;;16.31;65.30;99423.97;4949104;28;20382;-85
2022/04/26 05:07:30;;;;;;;;;;;;;;;16.54;64.45;99423.84;4949025;28;19970;-85
2022/04/26 05:09:55;;;;;;;;;;;;;;;16.72;63.46;99435.50;4948986;28;19922;-85
2022/04/26 05:12:21;;;;;;;;;;;;;;;16.73;64.06;99434.56;4948280;28;19994;-84
2022/04/26 05:14:46;;;;;;;;;;;;;;;16.92;62.14;99423.97;4948679;28;20396;-84
2022/04/26 05:17:11;;;;;;;;;;;;;;;17.34;60.46;99435.38;4949265;28;19942;-83
2022/04/26 05:19:37;;;;;;;;;;;;;;;17.64;58.98;99432.19;4949042;28;20380;-84
2022/04/26 05:22:06;;;;;;;;;;;;;;;17.75;58.06;99437.88;4946165;28;19922;-84
2022/04/26 05:27:15;;;;;;;;;;;;;;;17.76;56.79;99436.06;4948765;29;19950;-85
2022/04/26 05:29:41;;;;;;;;;;;;;;;17.81;56.49;99440.25;4949452;28;20397;-85
2022/04/26 05:32:07;;;;;;;;;;;;;;;18.01;55.87;99436.63;4948928;28;19929;-84
2022/04/26 05:34:32;;;;;;;;;;;;;;;18.17;55.06;99435.88;4948465;28;19919;-84
2022/04/26 05:36:58;;;;;;;;;;;;;;;18.38;53.93;99444.56;4948047;29;19918;-84
2022/04/26 05:39:23;;;;;;;;;;;;;;;18.50;51.69;99449.28;4949444;28;19915;-81
2022/04/26 05:41:49;;;;;;;;;;;;;;;18.53;52.89;99442.94;4947894;28;19922;-83
2022/04/26 05:44:14;;;;;;;;;;;;;;;18.85;51.80;99443.94;4949738;28;19919;-82
2022/04/26 05:46:39;;;;;;;;;;;;;;;18.83;49.54;99440.47;4948871;28;19914;-82
2022/04/26 05:49:05;;;;;;;;;;;;;;;18.41;49.59;99447.97;4949037;28;20016;-82
2022/04/26 05:51:30;;;;;;;;;;;;;;;18.58;49.32;99452.44;4949357;28;19965;-82
2022/04/26 05:53:55;;;;;;;;;;;;;;;18.80;49.28;99443.31;4948380;28;20013;-83
2022/04/26 05:56:20;;;;;;;;;;;;;;;18.99;49.66;99447.69;4949303;28;19918;-82
2022/04/26 05:58:46;;;;;;;;;;;;;;;19.44;50.41;99438.94;4949088;28;20391;-82
2022/04/26 06:01:11;;;;;;;;;;;;;;;19.67;48.93;99444.84;4949059;28;20051;-82
2022/04/26 06:03:37;;;;;;;;;;;;;;;19.75;49.09;99445.25;4949212;28;20436;-82
2022/04/26 06:06:02;;;;;;;;;;;;;;;19.63;50.56;99438.81;4954643;28;19914;-82
2022/04/26 06:08:27;;;;;;;;;;;;;;;20.05;49.51;99441.81;4953856;29;20423;-82
2022/04/26 06:10:53;;;;;;;;;;;;;;;20.55;48.18;99440.63;4954223;28;19929;-81
2022/04/26 06:13:18;;;;;;;;;;;;;;;20.97;48.34;99439.94;4953156;28;19973;-83
2022/04/26 06:15:43;;;;;;;;;;;;;;;21.28;46.69;99436.19;4951927;28;19914;-83
2022/04/26 06:18:09;;;;;;;;;;;;;;;21.80;45.19;99429.31;4952326;28;19914;-83
2022/04/26 06:20:34;;;;;;;;;;;;;;;21.60;43.98;99428.78;4952367;28;19918;-82
2022/04/26 06:23:00;;;;;;;;;;;;;;;21.79;43.37;99424.91;4952405;28;19914;-82
2022/04/26 06:25:25;;;;;;;;;;;;;;;21.97;43.45;99429.03;4951591;28;19922;-82
2022/04/26 06:27:51;;;;;;;;;;;;;;;21.88;41.59;99426.97;4951985;28;19954;-82
2022/04/26 06:30:16;;;;;;;;;;;;;;;21.92;41.62;99430.31;4952022;28;19911;-83
2022/04/26 06:32:43;;;;;;;;;;;;;;;22.22;40.64;99424.72;4952018;28;19918;-83
2022/04/26 06:35:08;;;;;;;;;;;;;;;23.04;39.50;99421.78;4952196;28;19925;-83
2022/04/26 06:37:34;;;;;;;;;;;;;;;23.17;38.77;99422.69;4950167;28;19922;-83
2022/04/26 06:39:59;;;;;;;;;;;;;;;23.65;38.49;99421.03;4952257;28;19925;-82
2022/04/26 06:42:24;;;;;;;;;;;;;;;23.95;38.55;99429.56;4952458;29;19972;-82
2022/04/26 06:44:50;;;;;;;;;;;;;;;23.51;38.84;99422.94;4952206;29;19978;-83
2022/04/26 06:47:15;;;;;;;;;;;;;;;23.54;38.36;99422.72;4952327;28;19925;-83
2022/04/26 06:49:40;;;;;;;;;;;;;;;24.05;37.81;99421.66;4951980;29;19989;-82
2022/04/26 06:52:06;;;;;;;;;;;;;;;23.75;39.48;99422.94;4951372;28;20270;-84
2022/04/26 06:54:31;;;;;;;;;;;;;;;24.21;39.27;99420.50;4951972;28;20632;-83
2022/04/26 06:56:56;;;;;;;;;;;;;;;24.12;39.90;99422.91;4951038;28;20487;-83
2022/04/26 06:59:21;;;;;;;;;;;;;;;24.32;39.12;99420.53;4951472;28;19918;-83
2022/04/26 07:01:52;;;;;;;;;;;;;;;24.82;38.43;99412.22;4949113;28;19956;-82
2022/04/26 07:04:18;;;;;;;;;;;;;;;24.86;36.91;99416.41;4950295;29;19921;-82
2022/04/26 07:06:43;;;;;;;;;;;;;;;25.11;36.67;99415.28;4949337;29;19918;-83
2022/04/26 07:09:09;;;;;;;;;;;;;;;25.40;36.45;99414.84;4949540;28;19922;-83
2022/04/26 07:11:34;;;;;;;;;;;;;;;25.64;36.10;99408.38;4950637;28;19918;-83
2022/04/26 07:13:59;;;;;;;;;;;;;;;25.68;35.47;99412.56;4951523;28;19918;-83
2022/04/26 07:16:25;;;;;;;;;;;;;;;25.48;35.75;99414.22;4950623;28;19918;-83
2022/04/26 07:18:50;;;;;;;;;;;;;;;26.05;35.92;99414.94;4951023;29;20017;-84
2022/04/26 07:21:15;;;;;;;;;;;;;;;26.05;35.19;99406.84;4950746;28;19922;-83
2022/04/26 07:23:40;;;;;;;;;;;;;;;26.02;34.53;99409.78;4948938;28;20410;-82
2022/04/26 07:26:06;;;;;;;;;;;;;;;26.22;35.12;99411.66;4951022;28;19950;-83
2022/04/26 07:28:32;;;;;;;;;;;;;;;26.00;33.77;99412.63;4950823;29;19977;-83
2022/04/26 07:30:57;;;;;;;;;;;;;;;25.95;34.15;99414.84;4950947;28;20052;-84
2022/04/26 07:36:06;;;;;;;;;;;;;;;26.48;33.97;99414.00;4949842;28;19926;-85
2022/04/26 07:38:32;;;;;;;;;;;;;;;26.51;34.67;99413.72;4950749;28;19918;-85
2022/04/26 07:40:57;;;;;;;;;;;;;;;26.49;34.59;99418.38;4949463;28;20325;-85
2022/04/26 07:43:22;;;;;;;;;;;;;;;26.30;35.28;99419.13;4949998;28;19918;-84
2022/04/26 07:45:48;;;;;;;;;;;;;;;25.77;34.86;99409.09;4950832;28;19919;-85
2022/04/26 07:48:16;;;;;;;;;;;;;;;25.50;37.03;99421.22;4950990;28;19918;-85
2022/04/26 07:50:42;;;;;;;;;;;;;;;25.94;35.92;99412.25;4949117;28;19918;-85
2022/04/26 07:53:07;;;;;;;;;;;;;;;25.82;35.70;99412.28;4949745;28;20305;-85
2022/04/26 07:55:33;;;;;;;;;;;;;;;26.04;36.75;99407.81;4949283;29;20068;-85
2022/04/26 07:57:58;;;;;;;;;;;;;;;26.48;35.86;99416.69;4950371;28;19914;-85
2022/04/26 08:00:24;;;;;;;;;;;;;;;26.51;36.07;99419.13;4950459;28;19918;-86
2022/04/26 08:02:50;;;;;;;;;;;;;;;26.56;37.08;99414.19;4950208;28;20057;-85
2022/04/26 08:05:15;;;;;;;;;;;;;;;26.47;35.50;99420.38;4950218;28;20388;-85
2022/04/26 08:07:41;;;;;;;;;;;;;;;26.62;35.28;99415.50;4949408;28;19933;-84
2022/04/26 08:10:11;;;;;;;;;;;;;;;26.16;35.64;99412.19;4950201;28;20115;-85
2022/04/26 08:12:40;;;;;;;;;;;;;;;26.63;36.65;99409.09;4950190;28;19925;-85
2022/04/26 08:15:06;;;;;;;;;;;;;;;26.17;35.75;99396.84;4949439;28;19922;-86
2022/04/26 08:17:31;;;;;;;;;;;;;;;26.54;35.70;99405.34;4950183;28;20915;-85
2022/04/26 08:19:56;;;;;;;;;;;;;;;26.26;34.00;99394.19;4949591;28;19930;-85
2022/04/26 08:22:22;;;;;;;;;;;;;;;26.20;33.65;99394.72;4948819;29;19918;-85
2022/04/26 08:27:33;;;;;;;;;;;;;;;25.99;35.44;99386.56;4949759;28;20029;-85
2022/04/26 08:29:59;;;;;;;;;;;;;;;26.24;32.67;99393.50;4949150;28;19914;-86
2022/04/26 08:32:26;;;;;;;;;;;;;;;26.04;35.53;99394.28;4949947;28;19945;-85
2022/04/26 08:34:57;;;;;;;;;;;;;;;25.87;35.46;99387.56;4947687;28;20020;-86
2022/04/26 08:37:23;;;;;;;;;;;;;;;26.34;35.86;99384.59;4950105;28;19921;-85
2022/04/26 08:39:52;;;;;;;;;;;;;;;26.40;35.11;99389.44;4949392;28;20396;-85
2022/04/26 08:42:32;;;;;;;;;;;;;;;26.65;34.13;99384.59;4949339;28;19915;-85
2022/04/26 08:44:58;;;;;;;;;;;;;;;25.99;33.24;99377.63;4948548;28;20812;-84
2022/04/26 08:52:51;;;;;;;;;;;;;;;26.00;32.93;99376.66;4948893;28;19990;-85
2022/04/26 08:55:16;;;;;;;;;;;;;;;25.86;33.53;99377.78;4949311;28;20377;-85
2022/04/26 08:57:42;;;;;;;;;;;;;;;25.97;34.22;99363.38;4948590;28;19918;-87
2022/04/26 09:00:11;;;;;;;;;;;;;;;25.63;33.63;99371.59;4949430;28;19918;-85
2022/04/26 09:02:36;;;;;;;;;;;;;;;25.87;34.00;99368.66;4949787;29;19969;-86
2022/04/26 09:05:08;;;;;;;;;;;;;;;26.24;33.41;99371.88;4949619;28;20381;-87
2022/04/26 09:07:34;;;;;;;;;;;;;;;25.71;33.51;99364.53;4948739;28;20388;-84
2022/04/26 09:10:04;;;;;;;;;;;;;;;25.41;34.18;99364.38;4949604;28;19958;-87
2022/04/26 09:12:29;;;;;;;;;;;;;;;25.36;33.67;99367.47;4948994;28;20001;-86
2022/04/26 09:14:55;;;;;;;;;;;;;;;25.74;33.25;99358.88;4949275;28;20465;-86
2022/04/26 09:17:20;;;;;;;;;;;;;;;25.12;31.69;99363.06;4949285;28;19918;-86
2022/04/26 09:19:47;;;;;;;;;;;;;;;25.40;32.42;99355.44;4948835;28;19918;-85
2022/04/26 09:22:16;;;;;;;;;;;;;;;25.68;33.05;99345.03;4949534;28;19914;-85
2022/04/26 09:24:57;;;;;;;;;;;;;;;25.62;32.29;99341.00;4949023;28;19946;-87
2022/04/26 09:27:23;;;;;;;;;;;;;;;25.48;33.72;99338.59;4949039;28;19918;-87
2022/04/26 09:29:49;;;;;;;;;;;;;;;25.54;33.50;99333.53;4949430;28;20386;-86
2022/04/26 09:32:14;;;;;;;;;;;;;;;25.37;32.93;99334.09;4949236;28;19958;-85
2022/04/26 09:34:40;;;;;;;;;;;;;;;25.72;31.67;99333.84;4949015;28;19919;-85
2022/04/26 09:37:05;;;;;;;;;;;;;;;25.80;31.61;99337.78;4949155;28;19918;-86
2022/04/26 09:39:31;;;;;;;;;;;;;;;26.04;34.56;99330.31;4950085;28;20412;-88
2022/04/26 09:41:56;;;;;;;;;;;;;;;25.84;32.62;99326.56;4951878;29;19918;-85
2022/04/26 09:44:32;;;;;;;;;;;;;;;26.07;33.76;99332.75;4952783;28;19922;-85
2022/04/26 09:46:58;;;;;;;;;;;;;;;25.92;32.93;99331.34;4942898;28;19926;-86
2022/04/26 09:49:25;;;;;;;;;;;;;;;25.68;30.96;99323.44;4932467;29;19926;-86
2022/04/26 09:51:54;;;;;;;;;;;;;;;25.80;33.61;99322.41;4951300;29;20009;-85
2022/04/26 09:54:20;;;;;;;;;;;;;;;25.90;32.16;99322.47;4952996;28;19991;-86
2022/04/26 09:56:45;;;;;;;;;;;;;;;26.16;31.62;99323.00;4941838;28;20012;-85
2022/04/26 09:59:13;;;;;;;;;;;;;;;26.17;29.58;99321.16;4933716;29;20697;-86
2022/04/26 10:01:39;;;;;;;;;;;;;;;25.70;29.82;99318.75;4933524;29;19919;-84
2022/04/26 10:04:06;;;;;;;;;;;;;;;25.85;30.99;99317.47;4933544;29;20412;-86
2022/04/26 10:06:36;;;;;;;;;;;;;;;25.87;30.35;99315.50;4938064;28;19933;-85
2022/04/26 10:09:02;;;;;;;;;;;;;;;25.84;30.30;99328.41;4952945;28;19918;-84
2022/04/26 10:11:28;;;;;;;;;;;;;;;26.05;30.34;99331.16;4950581;29;20293;-84
2022/04/26 10:13:53;;;;;;;;;;;;;;;25.71;29.60;99320.47;4952488;28;20009;-83
2022/04/26 10:16:21;;;;;;;;;;;;;;;25.70;30.02;99319.63;4952023;28;19918;-84
2022/04/26 10:18:48;;;;;;;;;;;;;;;25.61;31.50;99316.84;4952239;28;20479;-86
2022/04/26 10:21:22;;;;;;;;;;;;;;;25.35;30.19;99311.78;4951965;28;19965;-84
2022/04/26 10:23:50;;;;;;;;;;;;;;;25.74;30.52;99307.56;4950198;28;19952;-84
2022/04/26 10:26:22;;;;;;;;;;;;;;;25.75;31.99;99297.66;4951916;28;20719;-84
2022/04/26 10:28:51;;;;;;;;;;;;;;;25.79;31.01;99301.78;4951005;29;20243;-86
2022/04/26 10:31:20;;;;;;;;;;;;;;;24.97;31.18;99305.78;4951795;28;19965;-85
2022/04/26 10:33:46;;;;;;;;;;;;;;;24.69;33.31;99315.25;4951875;28;19938;-83
2022/04/26 10:36:31;;;;;;;;;;;;;;;24.35;31.94;99317.88;4943208;28;19934;-84
2022/04/26 10:39:16;;;;;;;;;;;;;;;23.98;32.57;99327.97;4949895;28;19926;-84
2022/04/26 10:41:43;;;;;;;;;;;;;;;23.94;33.78;99343.50;4941052;29;19929;-85
2022/04/26 10:44:17;;;;;;;;;;;;;;;23.75;33.43;99335.94;4951974;28;19918;-83
2022/04/26 10:46:43;;;;;;;;;;;;;;;23.64;33.97;99322.41;4951838;28;19915;-83
2022/04/26 10:49:22;;;;;;;;;;;;;;;23.45;34.82;99341.75;4952101;28;19918;-84
2022/04/26 10:51:48;;;;;;;;;;;;;;;23.41;34.93;99339.28;4950215;28;20029;-84
2022/04/26 10:54:13;;;;;;;;;;;;;;;23.47;35.34;99347.91;4951138;28;20004;-83
2022/04/26 10:56:38;;;;;;;;;;;;;;;23.47;35.91;99343.38;4951193;28;19953;-86
2022/04/26 10:59:13;;;;;;;;;;;;;;;23.42;36.66;99345.56;4951459;29;20448;-84
2022/04/26 11:01:38;;;;;;;;;;;;;;;23.40;36.57;99331.34;4949789;28;20479;-85
2022/04/26 11:04:05;;;;;;;;;;;;;;;23.30;35.71;99333.84;4933356;29;20009;-88
2022/04/26 11:06:34;;;;;;;;;;;;;;;23.36;36.39;99328.03;4946693;28;19929;-86
2022/04/26 11:09:08;;;;;;;;;;;;;;;23.24;36.66;99327.09;4945270;28;20405;-85
2022/04/26 11:11:46;;;;;;;;;;;;;;;23.18;36.30;99314.09;4934491;28;19974;-85
2022/04/26 11:14:11;;;;;;;;;;;;;;;23.16;36.48;99313.34;4931861;29;19997;-86
2022/04/26 11:16:37;;;;;;;;;;;;;;;23.24;37.69;99302.88;4948687;28;19962;-87
2022/04/26 11:19:02;;;;;;;;;;;;;;;23.20;37.88;99292.44;4944811;28;20521;-87
2022/04/26 11:21:28;;;;;;;;;;;;;;;23.30;38.99;99277.34;4950372;28;19924;-86
2022/04/26 11:29:34;;;;;;;;;;;;;;;23.73;38.61;99306.41;4950776;28;19941;-85
2022/04/26 11:32:00;;;;;;;;;;;;;;;24.28;38.05;99322.03;4950798;28;19934;-86
2022/04/26 11:34:41;;;;;;;;;;;;;;;24.52;39.60;99329.19;4947103;28;19923;-86
2022/04/26 11:37:07;;;;;;;;;;;;;;;24.64;37.39;99318.31;4944880;28;19922;-86
2022/04/26 11:39:38;;;;;;;;;;;;;;;24.70;35.81;99319.69;4938844;28;19911;-85
2022/04/26 11:42:04;;;;;;;;;;;;;;;24.80;37.46;99292.81;4931350;29;19974;-85
2022/04/26 11:44:30;;;;;;;;;;;;;;;24.84;37.28;99280.81;4940459;28;20381;-85
2022/04/26 11:46:59;;;;;;;;;;;;;;;24.93;37.20;99285.47;4950994;28;20017;-85
2022/04/26 11:49:39;;;;;;;;;;;;;;;24.95;37.17;99277.25;4949153;29;20321;-85
2022/04/26 11:52:04;;;;;;;;;;;;;;;25.10;38.98;99280.50;4949977;28;19914;-85
2022/04/26 11:54:33;;;;;;;;;;;;;;;25.27;36.30;99284.50;4950448;28;19940;-86
2022/04/26 11:56:59;;;;;;;;;;;;;;;25.23;36.71;99278.53;4949924;28;19977;-85
2022/04/26 11:59:25;;;;;;;;;;;;;;;25.22;35.69;99279.50;4950382;29;19925;-85
2022/04/26 12:01:53;;;;;;;;;;;;;;;25.18;36.81;99278.91;4950264;28;20423;-85
2022/04/26 12:04:18;;;;;;;;;;;;;;;25.10;37.21;99280.50;4950283;28;19919;-86
2022/04/26 12:06:44;;;;;;;;;;;;;;;24.59;36.22;99281.91;4949441;28;20424;-85
2022/04/26 12:09:12;;;;;;;;;;;;;;;24.72;37.46;99277.25;4949248;29;19914;-85
2022/04/26 12:11:40;;;;;;;;;;;;;;;24.86;38.44;99280.69;4949500;28;19915;-85
2022/04/26 12:14:07;;;;;;;;;;;;;;;24.46;37.93;99279.31;4950113;28;19970;-85
2022/04/26 12:16:36;;;;;;;;;;;;;;;24.33;36.61;99281.25;4950370;28;20009;-85
2022/04/26 12:19:03;;;;;;;;;;;;;;;24.51;36.73;99274.41;4949881;28;19918;-85
2022/04/26 12:21:28;;;;;;;;;;;;;;;25.13;37.80;99255.97;4949818;28;19922;-84
2022/04/26 12:24:10;;;;;;;;;;;;;;;25.45;34.98;99252.47;4950152;29;19925;-86
2022/04/26 12:26:36;;;;;;;;;;;;;;;25.63;36.42;99255.47;4948560;28;19914;-85
2022/04/26 12:29:01;;;;;;;;;;;;;;;25.78;35.84;99248.75;4950161;28;19929;-85
2022/04/26 12:31:29;;;;;;;;;;;;;;;25.84;34.42;99247.34;4950450;28;20420;-85
2022/04/26 12:34:14;;;;;;;;;;;;;;;25.72;33.80;99249.28;4949962;28;19918;-85
2022/04/26 12:36:51;;;;;;;;;;;;;;;25.50;34.86;99248.41;4949952;28;19925;-84
2022/04/26 12:39:17;;;;;;;;;;;;;;;25.72;33.63;99243.88;4949310;28;20009;-84
2022/04/26 12:41:49;;;;;;;;;;;;;;;25.87;34.25;99241.69;4949162;28;20752;-85
2022/04/26 12:44:14;;;;;;;;;;;;;;;25.90;34.85;99244.13;4949045;28;19910;-85
2022/04/26 12:46:46;;;;;;;;;;;;;;;25.30;35.28;99241.97;4949437;28;19925;-84
2022/04/26 12:51:57;;;;;;;;;;;;;;;25.17;35.97;99230.44;4949974;29;19925;-85
2022/04/26 12:54:22;;;;;;;;;;;;;;;25.28;36.16;99222.31;4949661;28;19914;-85
2022/04/26 12:57:01;;;;;;;;;;;;;;;25.05;36.48;99226.06;4950701;28;19973;-86
2022/04/26 12:59:38;;;;;;;;;;;;;;;24.69;36.69;99222.72;4951023;28;19910;-84
2022/04/26 13:02:04;;;;;;;;;;;;;;;24.69;37.41;99223.56;4953372;28;19921;-84
2022/04/26 13:04:29;;;;;;;;;;;;;;;24.27;38.04;99226.00;4952116;28;19965;-84
2022/04/26 13:06:55;;;;;;;;;;;;;;;24.26;38.36;99238.59;4951902;28;20305;-85
2022/04/26 13:09:22;;;;;;;;;;;;;;;24.64;36.59;99228.50;4951023;28;19938;-87
2022/04/26 13:11:48;;;;;;;;;;;;;;;25.16;36.94;99226.03;4950259;29;19925;-85
2022/04/26 13:14:14;;;;;;;;;;;;;;;25.33;35.58;99216.56;4951375;28;20381;-86
2022/04/26 13:16:39;;;;;;;;;;;;;;;25.50;35.35;99221.41;4951122;28;19925;-86
2022/04/26 13:19:04;;;;;;;;;;;;;;;25.54;34.06;99213.91;4950823;28;20349;-86
2022/04/26 13:21:30;;;;;;;;;;;;;;;25.68;34.74;99210.00;4950120;28;20417;-85
2022/04/26 13:23:57;;;;;;;;;;;;;;;25.95;33.55;99195.97;4949265;28;19953;-85
2022/04/26 13:26:22;;;;;;;;;;;;;;;25.63;33.80;99209.56;4949886;28;19938;-85
2022/04/26 13:28:48;;;;;;;;;;;;;;;25.16;33.62;99209.84;4949229;28;19918;-85
2022/04/26 13:31:13;;;;;;;;;;;;;;;24.67;34.53;99217.47;4949977;29;19919;-84
2022/04/26 13:33:42;;;;;;;;;;;;;;;24.68;35.19;99208.34;4949607;29;19925;-86
2022/04/26 13:36:08;;;;;;;;;;;;;;;24.66;34.98;99216.56;4948316;28;19929;-85
2022/04/26 13:38:33;;;;;;;;;;;;;;;24.77;34.75;99220.25;4950417;28;19918;-85
2022/04/26 13:41:00;;;;;;;;;;;;;;;24.73;33.80;99218.78;4945390;28;19978;-84
2022/04/26 13:43:25;;;;;;;;;;;;;;;24.76;34.92;99219.41;4930452;28;20314;-85
2022/04/26 13:45:51;;;;;;;;;;;;;;;24.88;34.91;99222.91;4949763;28;19923;-84
2022/04/26 13:48:16;;;;;;;;;;;;;;;24.98;35.92;99220.34;4949050;29;19925;-85
2022/04/26 13:50:41;;;;;;;;;;;;;;;24.87;35.65;99213.13;4949634;28;19929;-84
2022/04/26 13:53:07;;;;;;;;;;;;;;;24.75;35.73;99217.69;4948184;28;19922;-85
2022/04/26 13:55:33;;;;;;;;;;;;;;;24.61;35.47;99224.19;4949402;28;19942;-85
2022/04/26 13:57:58;;;;;;;;;;;;;;;24.39;36.65;99221.47;4950198;28;19973;-84
2022/04/26 14:00:23;;;;;;;;;;;;;;;24.28;37.26;99219.63;4952898;28;19969;-86
2022/04/26 14:02:49;;;;;;;;;;;;;;;24.17;37.88;99235.78;4953172;28;20369;-86
2022/04/26 14:05:15;;;;;;;;;;;;;;;24.11;38.06;99240.69;4951509;29;20034;-86
2022/04/26 14:07:40;;;;;;;;;;;;;;;24.05;38.48;99230.41;4956616;28;19973;-85
2022/04/26 14:10:06;;;;;;;;;;;;;;;24.08;39.46;99234.66;4951190;29;20408;-86
2022/04/26 14:12:33;;;;;;;;;;;;;;;24.08;38.80;99232.84;4949872;28;19914;-86
2022/04/26 14:23:11;;;;;;;;;;;;;;;23.41;38.82;99209.28;4951736;28;20014;-85
2022/04/26 14:25:38;;;;;;;;;;;;;;;23.28;39.30;99203.97;4952685;28;20005;-85
2022/04/26 14:28:03;;;;;;;;;;;;;;;23.20;39.96;99195.59;4953478;28;19921;-86
2022/04/26 14:30:28;;;;;;;;;;;;;;;23.09;39.89;99192.88;4952044;28;19910;-85
2022/04/26 14:32:54;;;;;;;;;;;;;;;22.97;40.89;99195.47;4951947;28;19918;-85
2022/04/26 14:35:20;;;;;;;;;;;;;;;22.93;41.08;99188.59;4952261;28;20423;-86
2022/04/26 14:37:45;;;;;;;;;;;;;;;22.85;40.70;99194.53;4951736;29;20067;-85
2022/04/26 14:40:12;;;;;;;;;;;;;;;22.97;41.00;99202.66;4952379;28;19933;-86
2022/04/26 14:42:38;;;;;;;;;;;;;;;22.81;40.36;99205.63;4954269;29;19918;-87
2022/04/26 14:45:03;;;;;;;;;;;;;;;22.98;40.48;99210.63;4953887;29;19922;-86
2022/04/26 14:47:29;;;;;;;;;;;;;;;23.07;41.09;99215.31;4954331;28;19918;-86
2022/04/26 14:49:57;;;;;;;;;;;;;;;23.05;40.75;99227.19;4954457;29;19969;-87
2022/04/26 14:52:24;;;;;;;;;;;;;;;23.26;40.61;99238.19;4953482;28;20344;-86
2022/04/26 14:54:49;;;;;;;;;;;;;;;23.50;40.54;99248.09;4956506;28;19965;-85
2022/04/26 14:57:17;;;;;;;;;;;;;;;23.55;41.15;99257.50;4954248;28;20735;-85
2022/04/26 14:59:46;;;;;;;;;;;;;;;23.44;42.46;99256.63;4955732;28;19914;-86
2022/04/26 15:02:11;;;;;;;;;;;;;;;23.34;44.86;99260.00;4953448;29;20349;-85
2022/04/26 15:04:38;;;;;;;;;;;;;;;22.98;47.73;99267.09;4955017;28;19918;-86
2022/04/26 15:07:04;;;;;;;;;;;;;;;22.88;50.42;99276.81;4953180;28;19915;-85
2022/04/26 15:09:45;;;;;;;;;;;;;;;22.81;51.51;99271.00;4953254;29;19918;-85
2022/04/26 15:17:40;;;;;;;;;;;;;;;22.64;51.63;99288.34;4953190;29;19925;-87
2022/04/26 15:20:06;;;;;;;;;;;;;;;21.99;52.41;99294.69;4950824;29;19922;-86
2022/04/26 15:22:31;;;;;;;;;;;;;;;21.74;54.82;99304.41;4953001;29;19982;-89
2022/04/26 15:24:58;;;;;;;;;;;;;;;21.59;57.67;99318.84;4957375;28;19918;-89
2022/04/26 15:27:23;;;;;;;;;;;;;;;21.49;59.25;99329.34;4957840;28;20304;-88
2022/04/26 15:29:49;;;;;;;;;;;;;;;21.27;61.09;99327.16;4956535;28;19914;-86
2022/04/26 15:32:15;;;;;;;;;;;;;;;21.04;61.70;99331.34;4959076;29;19949;-88
2022/04/26 15:34:40;;;;;;;;;;;;;;;21.15;61.10;99341.38;4958660;28;19918;-89
2022/04/26 15:37:06;;;;;;;;;;;;;;;20.78;61.13;99346.41;4955921;28;19918;-86
2022/04/26 15:39:31;;;;;;;;;;;;;;;20.39;59.97;99346.06;4955318;28;19925;-85
2022/04/26 15:41:57;;;;;;;;;;;;;;;20.12;60.70;99357.47;4954669;28;19915;-85
2022/04/26 15:44:23;;;;;;;;;;;;;;;19.99;59.60;99351.16;4955776;28;19923;-88
2022/04/26 15:46:52;;;;;;;;;;;;;;;20.23;59.18;99359.50;4953842;28;19914;-88
2022/04/26 15:49:20;;;;;;;;;;;;;;;19.82;59.29;99353.00;4952664;28;19918;-87
2022/04/26 15:51:47;;;;;;;;;;;;;;;19.80;60.78;99349.56;4952332;28;19915;-88
2022/04/26 15:54:14;;;;;;;;;;;;;;;19.64;60.16;99344.19;4951410;28;19941;-89
2022/04/26 15:56:41;;;;;;;;;;;;;;;19.33;62.39;99340.59;4951115;28;19937;-85
2022/04/26 15:59:07;;;;;;;;;;;;;;;19.32;63.97;99340.69;4951073;28;19914;-87
2022/04/26 16:01:32;;;;;;;;;;;;;;;19.30;63.58;99345.28;4948752;28;20663;-89
2022/04/26 16:03:58;;;;;;;;;;;;;;;19.02;63.84;99352.16;4953657;28;19922;-88
2022/04/26 16:06:23;;;;;;;;;;;;;;;18.92;65.45;99356.28;4940391;28;19930;-88
2022/04/26 16:08:48;;;;;;;;;;;;;;;19.01;65.84;99360.28;4941105;29;20004;-88
2022/04/26 16:22:09;;;;;;;;;;;;;;;20.07;60.40;99338.16;4952128;29;20300;-88
2022/04/26 16:24:41;;;;;;;;;;;;;;;20.15;60.46;99325.16;4946083;28;20009;-87
2022/04/26 16:27:07;;;;;;;;;;;;;;;20.32;59.96;99331.31;4950387;29;19922;-89
2022/04/26 16:29:32;;;;;;;;;;;;;;;20.39;60.92;99340.72;4952050;28;19914;-88
2022/04/26 16:31:58;;;;;;;;;;;;;;;20.55;61.02;99348.66;4960503;28;20016;-87
2022/04/26 16:34:23;;;;;;;;;;;;;;;20.72;62.09;99356.53;4961291;28;19922;-86
2022/04/26 16:36:49;;;;;;;;;;;;;;;20.90;61.91;99348.31;4953407;28;19922;-85
2022/04/26 16:39:14;;;;;;;;;;;;;;;20.97;62.43;99348.78;4950168;28;19942;-84
2022/04/26 16:41:39;;;;;;;;;;;;;;;20.92;61.59;99349.94;4950846;28;19925;-85
2022/04/26 16:44:05;;;;;;;;;;;;;;;20.89;62.18;99363.53;4950122;28;19918;-84
2022/04/26 16:46:32;;;;;;;;;;;;;;;20.90;63.24;99373.28;4950107;28;19981;-85
2022/04/26 16:48:58;;;;;;;;;;;;;;;20.86;63.98;99379.81;4950375;28;19919;-83
2022/04/26 16:51:25;;;;;;;;;;;;;;;20.65;64.66;99373.09;4949254;29;19948;-85
2022/04/26 16:53:50;;;;;;;;;;;;;;;20.62;64.36;99376.81;4951455;28;19918;-85
2022/04/26 16:56:15;;;;;;;;;;;;;;;20.47;64.47;99380.44;4965056;28;20020;-83
2022/04/26 16:58:41;;;;;;;;;;;;;;;20.44;64.75;99377.94;4951508;28;20319;-85
2022/04/26 17:01:07;;;;;;;;;;;;;;;20.30;64.81;99384.13;4950194;28;20001;-85
2022/04/26 17:03:32;;;;;;;;;;;;;;;20.25;64.42;99380.84;4950047;28;19915;-85
2022/04/26 17:05:58;;;;;;;;;;;;;;;20.17;64.63;99386.66;4949528;28;19925;-84
2022/04/26 17:08:23;;;;;;;;;;;;;;;20.16;65.05;99380.44;4949932;29;19922;-84
2022/04/26 17:10:48;;;;;;;;;;;;;;;20.13;65.08;99390.50;4949508;28;20377;-83